Atlantic - Newfoundland: Past 24 Hour Conditions

 

Grates Cove

11:30 AM NDT 01 September 2014
This table is a summary of hourly weather conditions for the past 24 hours.
Date / Time
(NDT)
Wind(knots) Conditions Visibility(km) Pressure(kPa) Air tempC) Relative humidity(%) Dew pointC)
01 September 2014
11:30 NNW 5 N/A N/A 100.9 17 93 16
10:30 NNW 5 N/A N/A 100.9 16 96 16
9:30 W 6 N/A N/A 100.9 16 96 16
8:30 W 10 N/A N/A 100.8 16 97 15
7:30 W 14 N/A N/A 100.8 16 97 15
6:30 W 17 N/A N/A 100.8 16 97 15
5:30 WSW 15 gust 20 N/A N/A 100.7 16 97 15
4:30 WSW 17 gust 23 N/A N/A 100.7 16 96 15
3:30 WSW 19 N/A N/A 100.7 16 97 15
2:30 WSW 17 gust 25 N/A N/A 100.7 15 96 15
1:30 WSW 21 N/A N/A 100.8 15 95 15
0:30 WSW 22 N/A N/A 100.8 15 95 15
31 August 2014
23:30 WSW 25 gust 31 N/A N/A 100.8 16 95 15
22:30 WSW 26 N/A N/A 100.8 15 95 15
21:30 WSW 24 gust 30 N/A N/A 100.9 15 94 14
20:30 WSW 22 gust 30 N/A N/A 100.9 16 93 15
19:30 WSW 23 gust 29 N/A N/A 100.9 16 93 15
18:30 WSW 24 gust 29 N/A N/A 100.9 16 88 14
17:30 WSW 19 gust 25 N/A N/A 100.9 17 81 13
16:30 WSW 22 gust 29 N/A N/A 100.9 17 78 13
15:30 WSW 22 gust 27 N/A N/A 101.0 18 74 13
14:30 WSW 22 gust 29 N/A N/A 101.0 19 71 13
13:30 WSW 21 gust 30 N/A N/A 101.0 18 74 14
12:30 WSW 24 gust 29 N/A N/A 101.0 17 79 13
11:30 WSW 27 gust 32 N/A N/A 101.1 17 80 13
 
Map of Atlantic - Newfoundland marine weather areas Southwestern Grand Banks - 44138 Banquereau - 44139 Tail of the Bank - 44140 Nickerson Bank - 44251 Northeast Burgeo Bank - 44255 Blanc-Sablon Airport Cap Whittle Chevery Natashquan Airport Heath Point Miscou Island Grand Étang Ingonish Beach North Mountain St.Paul Island J.A. Douglas McCurdy Sydney Airport Charlottetown Airport East Point North Cape Argentia Bonavista Burgeo Cape Race Corner Brook Daniel's Harbour Englee Ferolle Point La Scie Port aux Basques Rocky Harbour Sagona Island St. Anthony Airport St. John's Int'l Airport St. Lawrence Stephenville Airport Twillingate Winterland Wreckhouse Cartwright Airport Mary's Harbour Grates Cove Pool's Island Marticot Island Long Pond Îles de la Madeleine Airport
Legend: buoyBuoy land stationLand Station